Roslindale, MA (02131)

11:15 PM EST on February 27, 2017 (GMT -0500)
KMAJAMAI4 | | Change Station

Elev 148 ft 42.30 °N, 71.13 °W | Updated 39 minutes ago

Clear
Clear
41.0 °F
Feels Like 41 °F
N
2.5
Wind Variable Wind from SW
Gusts 7.2 mph

Today
High -- | Low -- °F
--% Chance of Precip.
Yesterday
High -- | Low -- °F
Precip. -- in
Pressure 30.37 in
Visibility 10.0 miles
Clouds Clear
Windchill 41 °F
Dew Point 29 °F
Humidity 61%
Rainfall Not available.
Snow Depth Not available.
6:22 AM 5:32 PM
Waxing Crescent, 3% visible
METAR KOWD 280353Z AUTO 16004KT 10SM CLR 01/M03 A3037 RMK AO2 SLP284 T00061028
Pressure 30.37 in
Visibility 10.0 miles
Clouds Clear
Windchill 41 °F
Dew Point 29 °F
Humidity 61%
Rainfall Not available.
Snow Depth Not available.
6:22 AM 5:32 PM
Waxing Crescent, 3% visible
METAR KOWD 280353Z AUTO 16004KT 10SM CLR 01/M03 A3037 RMK AO2 SLP284 T00061028

Get Your Daily Forecast Email!

Thanks for signing up!

Be on the lookout for a verification email in your inbox.

You'll start receiving the daily forecast at 8 AM.

×

10-Day Weather Forecast

Almanac

Astronomy

Feb. 27, 2017 Rise Set
Actual Time
Civil Twilight
Nautical Twilight
Astronomical Twilight
Moon
Length of Visible Light
Length of Day
Tomorrow will be .
, % of the Moon is Illuminated

Today's Extremes

State Highs State Lows

Community

WunderPhotos

Upload Photos

1,962,540 photos uploaded!

WunderBlog® & News

Nearby

Air Quality

  Air Quality AQ Index Pollutant
Not available.

Snow Depth

Station Depth Elevation

Earthquake Activity

City Distance Mag. Time & Date
Minimum magnitude displayed is 2.5.

Coastal Water Temperatures

Place Temperature

Stations

Nearby Weather Stations

Station Location Temp. Windchill Dew Point Humidity Wind Precip. Elev Updated Type
                   

Watches & Warnings

There are currently no watches in effect.